Leonardo Rodrigues

Chief Scout - Internacional
21 Nov 2027
Sunday
Process

Personality

Adaptability (14) Ambition (19) Controversy (1) Loyalty (8) Pressure (6) Professionalism (10) Sportsmanship (4) Temperament (5)

Profile

Coaching Style Democratic
License Continental B
Determination 8
Man Management 7
Motivating 7
Discipline 11
Job Satisfaction
83%
Fatigue
0%
Role Chief Scout
Wage 24.4K p/w
Contract 14.03.2030

Performance

Behaviour Good
Training Effectiveness
48%
Player Development
55%
Injury Prevention
45%
Tactical Implementation
50%

Recent Events

Assessed a player now
Attended a recruitment meeting now
Recommended a transfer target now
Attended a recruitment meeting now
Assessed a player now
Assessed a player 7d ago
Assessed a player 7d ago
Assessed a player 7d ago

Currently Monitoring

250
Player Club Status Ability Confidence Watched Last Observed Latest Vote
Nobel Mendy Hull City Active 130 / 144 40% 1 20.11.2027 -
Kauã Moraes Flamengo Active 120 / 128 40% 1 20.11.2027 -
Alexsander Atlético Mineiro Active 139 / 131 40% 2 18.11.2027 -
Álex Valle Boca Juniors Active 132 / 142 40% 2 18.11.2027 -
Lucas Sanabria LA Galaxy Active 131 / 134 40% 3 17.11.2027 -
Honest Ahanor Atalanta Active 119 / 140 40% 1 17.11.2027 -
Brooke Norton-Cuffy Hull City Active 153 / 147 40% 6 15.11.2027 -
Lamare Bogarde Reading Active 140 / 138 40% 4 15.11.2027 -
Breno Bidon Corinthians Active 128 / 132 40% 2 13.11.2027 -
Gonçalo Nogueira Vitoria Guimaraes Active 128 / 127 40% 1 12.11.2027 -
Ignacio Perruzzi San Lorenzo Active 124 / 128 40% 1 12.11.2027 -
Alex Scott Bournemouth Active 156 / 159 40% 5 11.11.2027 -
Lautaro Di Lollo Boca Juniors Active 122 / 136 40% 3 11.11.2027 -
Jack Hinshelwood Watford Active 144 / 157 40% 3 09.11.2027 -
Michael Kayode Brentford Active 159 / 153 40% 4 09.11.2027 -
Nicolás Romero Minnesota United FC Active 127 / 131 40% 3 08.11.2027 -
Samuele Angori Red Bull Salzburg Active 128 / 139 40% 1 08.11.2027 -
Andrey Santos Bolton Wanderers Active 138 / 146 40% 1 06.11.2027 -
Ayden Heaven Portsmouth Active 151 / 149 40% 1 05.11.2027 -
Noah Sadiki Sunderland Active 165 / 152 40% 1 05.11.2027 -
Toby Collyer West Bromwich Albion Active 122 / 139 40% 2 31.10.2027 -
Ronnie Edwards Queens Park Rangers Active 122 / 133 40% 2 31.10.2027 -
Levi Colwill Chelsea Active 170 / 163 40% 4 28.10.2027 -
Yehor Yarmoliuk Brentford Active 146 / 158 40% 2 27.10.2027 -
Nahuel Herrera Penarol Active 127 / 129 40% 3 24.10.2027 -
Abdukodir Khusanov Oxford United Active 155 / 161 40% 3 22.10.2027 -
Ousmane Diomande Nottingham Forest Active 154 / 162 40% 3 22.10.2027 -
Fredrik Sjøvold Bodo/Glimt Active 155 / 138 40% 2 20.10.2027 -
Max Johnston Derby County Active 132 / 136 40% 2 16.10.2027 -
Yasin Ayari Middlesbrough Active 137 / 149 40% 3 15.10.2027 -
Carlos Baleba Norwich City Active 144 / 160 40% 1 15.10.2027 -
César Pérez Defensa y Justicia Active 116 / 126 40% 3 13.10.2027 -
Henrik Falchener Viking Active 108 / 127 40% 2 11.10.2027 -
Arthur Peixoto Astra Active 142 / 128 40% 4 10.10.2027 -
Lewis Miley Newcastle United Active 154 / 154 40% 2 09.10.2027 -
Shea Charles Southampton Active 148 / 148 40% 2 09.10.2027 -
Nectar Triantis Minnesota United FC Active 116 / 132 40% 2 06.10.2027 -
Jorrel Hato Chelsea Active 142 / 158 40% 1 04.10.2027 -
Adam Wharton Crystal Palace Active 175 / 159 40% 3 30.09.2027 -
Lewis Hall Newcastle United Active 166 / 154 40% 2 24.09.2027 -
Santiago González Tigre Active 120 / 129 40% 1 24.09.2027 -
Robert Renan Zenit Active 114 / 132 40% 3 22.09.2027 -
Cauan Barros Flamengo Active 119 / 128 40% 3 21.09.2027 -
Roméo Lavia Chelsea Active 136 / 160 40% 1 20.09.2027 -
Habib Diarra Sunderland Active 153 / 147 40% 1 16.09.2027 -
Kaiki Cruzeiro Active 148 / 131 40% 2 14.09.2027 -
Demir Ege Tıknaz Braga Active 116 / 131 40% 1 12.09.2027 -
Malo Gusto Chelsea Active 140 / 155 40% 1 11.09.2027 -
Tino Livramento Newcastle United Active 169 / 164 40% 1 11.09.2027 -
Mateo Mendoza Godoy Cruz Active 115 / 125 40% 1 10.09.2027 -
Patrick Dorgu Bristol City Active 162 / 152 40% 1 09.09.2027 -
Agustín Giay Palmeiras Active 139 / 132 40% 1 09.09.2027 -
Ben Nelson Leicester City Active 140 / 142 40% 2 06.09.2027 -
Mbekezeli Mbokazi Chicago Fire Active 110 / 133 40% 1 29.08.2027 -
Juanlu Bournemouth Active 153 / 152 40% 2 28.08.2027 -
Mamadou Coulibaly Al Jazira Active 119 / 131 40% 2 27.08.2027 -
Tomás Silva Platense Active 117 / 126 40% 1 20.08.2027 -
Danilo Veiga Lecce Active 133 / 129 40% 2 19.08.2027 -
Bjorn Meijer Sampdoria Active 113 / 126 40% 1 18.08.2027 -
Cesare Casadei Torino Active 147 / 145 40% 1 17.08.2027 -
Nicolò Bertola Udinese Active 159 / 144 40% 1 11.08.2027 -
Kevin Paredes Napoli Active 131 / 132 40% 1 11.08.2027 -
Ollie Scarles West Ham United Active 149 / 139 40% 2 09.08.2027 -
Junior Tchamadeu Stoke City Active 146 / 127 40% 1 08.08.2027 -
Harvey Vale Queens Park Rangers Active 125 / 127 40% 1 04.08.2027 -
Justin Devenny Stoke City Active 145 / 130 40% 1 12.07.2027 -
Destiny Udogie Tottenham Active 152 / 157 40% 1 07.07.2027 -
Quinten Timber Crystal Palace Active 154 / 157 40% 1 29.06.2027 -
Jacob Greaves Ipswich Town Active 153 / 140 40% 1 29.06.2027 -
Mats Wieffer Brighton Active 145 / 148 40% 1 02.06.2027 -
Thiago Almada LOSC Lille Negotiating 145 / 146 69% 1 01.06.2027 Approve
Solly March Brighton Active 167 / 151 40% 3 30.05.2027 -
Samu Aghehowa Nottingham Forest Active 146 / 146 40% 3 30.05.2027 -
Nicolas Jackson Aston Villa Active 132 / 153 40% 4 30.05.2027 -
Mohamed-Ali Cho Hull City Active 124 / 141 40% 2 30.05.2027 -
Dara O'Shea Ipswich Town Active 124 / 137 40% 1 30.05.2027 -
Jarrad Branthwaite Everton Active 158 / 158 40% 1 30.05.2027 -
Jørgen Strand Larsen Brighton Active 153 / 144 40% 2 26.05.2027 -
Tom Fellows Southampton Active 116 / 136 40% 3 26.05.2027 -
Morgan Gibbs-White Nottingham Forest Active 170 / 158 40% 4 26.05.2027 -
John McGinn Aston Villa Active 152 / 142 40% 1 26.05.2027 -
Isaiah Jones Luton Town Active 117 / 125 40% 1 24.05.2027 -
Gonzalo Fulham Active 160 / 150 40% 3 22.05.2027 -
Thiago Brentford Active 164 / 145 40% 1 22.05.2027 -
Georginio Rutter Brighton Active 145 / 148 40% 4 21.05.2027 -
Igor Jesus Nottingham Forest Active 158 / 139 40% 5 21.05.2027 -
Yeremy Pino Crystal Palace Active 158 / 147 40% 2 20.05.2027 -
Chemsdine Talbi Sunderland Active 150 / 143 40% 1 20.05.2027 -
Giacomo Raspadori Atalanta Active 150 / 151 40% 3 19.05.2027 -
Carlos Vicente Birmingham Active 149 / 142 40% 1 19.05.2027 -
Amadou Onana Aston Villa Active 145 / 158 40% 2 16.05.2027 -
Kevin Fulham Active 157 / 148 40% 1 16.05.2027 -
Jason Knight Bristol City Active 115 / 124 40% 1 15.05.2027 -
Joe Gelhardt Hull City Active 142 / 130 40% 2 14.05.2027 -
Manu Koné AS Roma Active 178 / 159 40% 2 13.05.2027 -
Florentino Luís Ipswich Town Active 127 / 140 40% 1 13.05.2027 -
Harry Wilson Leeds United Active 147 / 146 40% 1 08.05.2027 -
Assane Diao Como Active 132 / 147 40% 6 07.05.2027 -
Léo Scienza Southampton Active 140 / 133 40% 1 06.05.2027 -
Óscar Mingueza Crystal Palace Active 137 / 146 40% 2 05.05.2027 -
Marcus Edwards Burnley Active 126 / 138 40% 1 05.05.2027 -
Ismaïla Sarr Crystal Palace Active 144 / 146 40% 1 04.05.2027 -
Adam Randell Bristol City Active 123 / 132 40% 1 04.05.2027 -
Maxence Lacroix Chelsea Active 145 / 144 40% 1 04.05.2027 -
Brian Brobbey Sunderland Active 152 / 146 40% 2 02.05.2027 -
Taty Castellanos West Ham United Active 148 / 144 40% 3 01.05.2027 -
Tammy Abraham Aston Villa Active 148 / 139 40% 4 01.05.2027 -
Jarrod Bowen West Ham United Active 153 / 149 40% 1 30.04.2027 -
Mohammed Kudus Tottenham Active 144 / 155 40% 2 29.04.2027 -
Gianluca Scamacca Atalanta Active 138 / 147 40% 5 26.04.2027 -
Kevin Schade Chelsea Active 143 / 155 40% 1 26.04.2027 -
Gonçalo Ramos AC Milan Active 157 / 156 40% 2 25.04.2027 -
João Pedro Chelsea Active 169 / 147 40% 1 25.04.2027 -
Julián Quiñones Al-Qadisiyah Active 149 / 141 40% 11 23.04.2027 -
Soungoutou Magassa West Ham United Active 130 / 134 40% 1 23.04.2027 -
Barış Alper Yılmaz Galatasaray Active 160 / 153 40% 6 21.04.2027 -
Kerem Aktürkoğlu Fenerbahce Active 129 / 145 40% 6 19.04.2027 -
Fábio Carvalho Brentford Active 127 / 144 40% 1 17.04.2027 -
Khéphren Thuram Juventus Active 144 / 160 40% 1 16.04.2027 -
Diego Enríquez Sporting Cristal Active 137 / 134 40% 1 16.04.2027 -
Joseph Leclercq Tottenham Active 165 / 158 40% 1 16.04.2027 -
João Félix Dinamo Moscow Active 165 / 153 40% 5 12.04.2027 -
Eduardo Lozano Botafogo Active 148 / 146 40% 5 11.04.2027 -
Francesco Pio Esposito Inter Active 134 / 148 40% 5 11.04.2027 -
Tasos Douvikas Como Active 160 / 144 40% 5 10.04.2027 -
Santiago Castro AS Roma Active 128 / 151 40% 4 10.04.2027 -
Yoan Bonny Inter Active 147 / 144 40% 5 09.04.2027 -
Ollie Watkins Al-Hilal Active 159 / 145 40% 6 08.04.2027 -
Che Adams Torino Active 126 / 140 40% 9 08.04.2027 -
Welington Southampton Active 117 / 123 40% 1 07.04.2027 -
Piotr Zieliński Inter Active 154 / 149 40% 1 07.04.2027 -
Pedro Flamengo Active 142 / 145 40% 11 06.04.2027 Monitor
Juan Brunetta Chicago Fire Active 130 / 133 40% 2 05.04.2027 -
Oli McBurnie Hull City Active 131 / 134 40% 2 02.04.2027 -
Hidemasa Morita Hull City Active 137 / 145 40% 1 02.04.2027 -
Leon Goretzka Aston Villa Active 157 / 157 40% 1 31.03.2027 -
Roberto Fernández Braga Active 124 / 138 40% 7 27.03.2027 -
Marcelo Allende Mamelodi Sundowns Active 140 / 132 40% 1 27.03.2027 -
Robin Roefs Sunderland Active 160 / 151 40% 3 26.03.2027 -
João Carvalho Estoril Praia Active 138 / 128 40% 2 24.03.2027 -
Carlos Forbs Club Brugge Active 142 / 137 40% 5 24.03.2027 -
Dominic Calvert-Lewin Leeds United Active 131 / 146 40% 6 21.03.2027 -
Sorriso Famalicao Active 139 / 127 40% 1 19.03.2027 -
Steven Bergwijn Al-Ittihad Active 133 / 144 40% 11 18.03.2027 -
André-Franck Zambo Anguissa Napoli Active 167 / 155 40% 1 17.03.2027 -
Matthew Targett Hull City Active 136 / 133 40% 1 17.03.2027 -
Mateo Pellegrino Fiorentina Active 125 / 141 40% 5 12.03.2027 -
Abbosbek Fayzullayev Basaksehir Active 113 / 136 40% 1 11.03.2027 -
Rodrigo Muniz Fulham Active 130 / 147 40% 2 10.03.2027 -
Jean-Baptiste Gorby Braga Active 125 / 132 40% 2 10.03.2027 -
Milan van Ewijk Coventry City Active 129 / 138 40% 1 10.03.2027 -
Nikola Vlašić Torino Active 136 / 150 40% 6 05.03.2027 -
João Palhinha Benfica Active 157 / 157 40% 4 01.03.2027 -
Mathias De Amorim Famalicao Active 112 / 138 40% 3 01.03.2027 -
Gianluca Prestianni Benfica Active 151 / 140 40% 2 01.03.2027 -
Santi García Gil Vicente Active 142 / 136 40% 1 01.03.2027 -
Mojmír Chytil Slavia Prague Active 121 / 127 40% 3 28.02.2027 -
Franculino Brighton Active 124 / 134 40% 1 28.02.2027 -
Fredrik Aursnes Benfica Active 145 / 151 40% 3 27.02.2027 -
Álex Berenguer Lokomotiv Moscow Active 140 / 155 40% 4 27.02.2027 -
Tariq Lamptey Queens Park Rangers Active 129 / 134 40% 1 27.02.2027 -
Ángel Correa River Plate Active 133 / 143 40% 2 25.02.2027 -
Kenny Tete Fulham Active 148 / 143 40% 2 25.02.2027 -
Jan Bednarek Porto Active 134 / 142 40% 2 25.02.2027 -
Enzo Barrenechea Benfica Active 140 / 142 40% 2 19.02.2027 -
Matías Fernández-Pardo Chelsea Active 129 / 140 40% 1 13.02.2027 -
Nuno Santos Sporting CP Active 158 / 144 40% 1 11.02.2027 -
Andrea Pinamonti Lazio Active 129 / 129 40% 2 08.02.2027 -
Carlos Álvarez Club America Active 129 / 141 40% 1 08.02.2027 -
Pablo Rosario Porto Active 154 / 140 40% 3 07.02.2027 -
Fran Vieites Walsall Active 116 / 113 40% 2 07.02.2027 -
Léo Ortiz Flamengo Active 129 / 143 40% 1 06.02.2027 -
Tomás Araújo Benfica Active 159 / 148 40% 1 06.02.2027 -
Folarin Balogun Monaco Active 126 / 133 40% 2 02.02.2027 -
Esteban Lepaul Stade Rennais Active 148 / 143 40% 2 02.02.2027 -
Geny Sporting CP Active 141 / 135 40% 1 30.01.2027 -
Amine Gouiri Olympique de Marseille Active 155 / 136 40% 4 28.01.2027 -
Yoane Wissa Newcastle United Active 145 / 136 40% 4 27.01.2027 -
Petar Musa FC Dallas Active 124 / 140 40% 2 27.01.2027 -
Hamza Igamane LOSC Lille Active 147 / 142 40% 2 25.01.2027 -
Vangelis Pavlidis Porto Active 156 / 147 40% 1 24.01.2027 -
Alexey Miranchuk Atlanta United FC Active 127 / 134 40% 4 21.01.2027 -
Nordi Mukiele Sunderland Active 161 / 150 40% 2 18.01.2027 -
Luís Esteves Atlas Active 148 / 126 40% 1 18.01.2027 -
André Wolverhampton Active 133 / 144 40% 1 14.01.2027 -
Memphis Depay Corinthians Active 145 / 144 40% 1 09.01.2027 -
Mario Dorgeles Braga Active 133 / 138 40% 1 08.01.2027 -
Matheuzinho Corinthians Active 126 / 132 40% 1 05.01.2027 -
Pepê Porto Active 148 / 138 40% 3 31.12.2026 -
Lukas Jensen Millwall Active 114 / 124 40% 1 26.12.2026 -
Wesley Saïd RC Lens Active 139 / 136 40% 1 22.12.2026 -
Gustavo Cazonatti Mirassol Active 110 / 122 51% 1 21.12.2026 -
Dwight McNeil Crystal Palace Active 127 / 137 40% 1 21.12.2026 -
Leo Ceara Kashima Antlers Active 157 / 139 40% 2 14.12.2026 -
Yehvann Diouf OGC Nice Active 147 / 132 40% 1 07.12.2026 -
Anthony Patterson Wrexham Active 114 / 135 40% 1 07.12.2026 -
Marinho Vitória Active 139 / 123 51% 1 02.12.2026 -
Odsonne Édouard Olympique Lyonnais Active 149 / 141 40% 1 29.11.2026 -
Gérson Cruzeiro Active 152 / 139 40% 1 28.11.2026 -
Heorhii Sudakov Benfica Active 138 / 152 40% 1 27.11.2026 -
Martinelli Fluminense Active 133 / 144 40% 2 25.11.2026 -
Dodi Lukébakio Benfica Active 127 / 139 40% 7 24.11.2026 -
Caio Alexandre Bahia Active 139 / 140 40% 1 22.11.2026 -
Luis Quintero Torreense Active 136 / 129 40% 1 18.11.2026 -
Victor Froholdt Porto Active 136 / 152 40% 1 18.11.2026 -
Richarlison Tottenham Active 130 / 144 40% 1 16.11.2026 -
Samuel Dahl Benfica Active 126 / 136 40% 1 15.11.2026 -
Dominic Solanke Tottenham Active 139 / 153 40% 1 12.11.2026 -
Alejandro Zendejas Club America Active 134 / 144 40% 1 07.11.2026 -
Mathys Tel Tottenham Active 152 / 146 40% 1 30.10.2026 -
Alan Varela Porto Active 128 / 138 40% 2 29.10.2026 -
Agustín Palavecino Cruz Azul Active 150 / 133 40% 1 28.10.2026 -
Rodrigo Garro Corinthians Active 132 / 130 40% 1 25.10.2026 -
Alberto Costa Porto Active 130 / 135 40% 2 24.10.2026 -
Lucas Paquetá Flamengo Active 143 / 143 40% 1 22.10.2026 -
Noah Okafor Leeds United Active 136 / 141 40% 2 20.10.2026 -
Eden Lukaku KV Oostende Active 161 / 162 40% 1 19.10.2026 -
Donyell Malen AS Roma Active 142 / 147 40% 2 13.10.2026 -
Pau Víctor Braga Active 120 / 131 40% 1 10.10.2026 -
Michael Cooper Sheffield United Active 131 / 128 40% 1 10.10.2026 -
Emanuel Emegha Chelsea Active 122 / 143 40% 1 09.10.2026 -
Eddie Nketiah Crystal Palace Active 121 / 132 40% 1 09.10.2026 -
Nicolás de la Cruz Flamengo Active 136 / 132 40% 1 08.10.2026 -
Allan Saint-Maximin Charlotte Football Club Active 149 / 132 40% 1 08.10.2026 -
Alexis Vega Feyenoord Active 145 / 138 40% 2 05.10.2026 -
Renan Lodi Atlético Mineiro Active 140 / 138 40% 1 04.10.2026 -
Erik Lira Cruz Azul Active 135 / 135 40% 1 04.10.2026 -
Luke Shaw Lokomotiv Moscow Active 153 / 152 40% 1 04.10.2026 -
Kasper Dolberg Ajax Active 146 / 134 40% 1 01.10.2026 -
Danilo Botafogo Active 130 / 141 40% 1 28.09.2026 -
Iván Fresneda Sporting CP Active 121 / 140 40% 3 27.09.2026 -
Hwang In-Beom Porto Active 150 / 148 40% 1 27.09.2026 -
Cristian Uribe Monaco Active 166 / 145 40% 1 27.09.2026 -
Manuel Roffo Hajduk Split Active 133 / 121 40% 1 21.09.2026 -
Álvaro Martínez Moreirense Active 105 / 108 40% 1 12.09.2026 -
Nicolò Zaniolo Udinese Active 124 / 148 40% 2 10.09.2026 -
Matheus Pereira Cruzeiro Active 145 / 137 40% 1 05.09.2026 -
Mateja Stjepanović Moreirense Active 115 / 131 40% 1 02.09.2026 -
Andreas Schjelderup Benfica Active 122 / 143 40% 1 02.09.2026 -
William Gomes Porto Active 121 / 145 40% 2 28.08.2026 -
Tomáš Chorý Slavia Prague Active 127 / 144 40% 1 25.08.2026 -
Igor Paixão Olympique de Marseille Active 134 / 142 40% 1 22.08.2026 -
Ricardo Horta Braga Active 133 / 145 40% 1 19.08.2026 -
Joshua Zirkzee Manchester United Active 129 / 140 40% 3 18.08.2026 -
Lisandro Martínez Ajax Active 151 / 158 40% 1 18.08.2026 -
Ayase Ueda LOSC Lille Active 150 / 139 40% 1 18.08.2026 -
Luis Suárez Sporting CP Active 172 / 161 40% 1 08.08.2026 -
Pau Torres Aston Villa Active 146 / 149 40% 1 07.08.2026 -
Christian Pulisic AC Milan Active 179 / 162 40% 1 02.08.2026 -
Karim Adeyemi Barcelona Active 150 / 150 40% 1 01.08.2026 -